Time;durP1;ratioP1;P1;durP2;ratioP2;P2;SDS_P1;SDS_P2;PMS_P1;PMS_P2;Temp;Humidity;BMP_temperature;BMP_pressure;BME280_temperature;BME280_humidity;BME280_pressure;Samples;Min_cycle;Max_cycle;Signal;HPM_P1;HPM_P2
2023/04/29 00:02:01;;;;;;;1.63;1.52;;;11.50;99.90;;;;;;5130348;27;20584;-71
2023/04/29 00:04:29;;;;;;;2.35;1.85;;;11.50;99.90;;;;;;5258252;22;20243;-71
2023/04/29 00:06:56;;;;;;;2.17;1.98;;;11.50;99.90;;;;;;5069135;28;20376;-72
2023/04/29 00:09:23;;;;;;;2.03;1.83;;;11.50;99.90;;;;;;5069118;28;20253;-72
2023/04/29 00:11:50;;;;;;;1.75;1.40;;;11.50;99.90;;;;;;5089246;28;20198;-72
2023/04/29 00:14:17;;;;;;;2.40;1.90;;;11.50;99.90;;;;;;5089511;28;20227;-72
2023/04/29 00:16:44;;;;;;;1.83;1.67;;;11.50;99.90;;;;;;5078030;28;20258;-72
2023/04/29 00:19:11;;;;;;;2.13;1.92;;;11.50;99.90;;;;;;5069591;28;20200;-71
2023/04/29 00:21:39;;;;;;;4.10;1.80;;;11.50;99.90;;;;;;5068993;28;20259;-71
2023/04/29 00:24:06;;;;;;;3.00;1.88;;;11.60;99.90;;;;;;5069684;28;20216;-71
2023/04/29 00:26:34;;;;;;;3.58;1.70;;;11.50;99.90;;;;;;5069449;28;20592;-71
2023/04/29 00:29:01;;;;;;;2.47;2.10;;;11.50;99.90;;;;;;5069657;28;20200;-71
2023/04/29 00:31:31;;;;;;;2.28;1.70;;;11.50;99.90;;;;;;5069228;28;20257;-71
2023/04/29 00:33:58;;;;;;;1.80;1.70;;;11.50;99.90;;;;;;5069653;28;20295;-71
2023/04/29 00:36:25;;;;;;;2.17;1.80;;;11.40;99.90;;;;;;5069298;28;20231;-71
2023/04/29 00:38:53;;;;;;;2.38;1.88;;;11.40;99.90;;;;;;5069534;28;20228;-71
2023/04/29 00:41:20;;;;;;;2.25;2.05;;;11.50;99.90;;;;;;5069456;28;20220;-71
2023/04/29 00:43:46;;;;;;;2.58;1.70;;;11.50;99.90;;;;;;5068917;28;20571;-71
2023/04/29 00:46:13;;;;;;;2.03;1.92;;;11.50;99.90;;;;;;5069586;28;20200;-71
2023/04/29 00:48:40;;;;;;;2.00;1.90;;;11.50;99.90;;;;;;5069179;28;20204;-72
2023/04/29 00:51:08;;;;;;;1.80;1.50;;;11.50;99.90;;;;;;5069489;28;20722;-71
2023/04/29 00:53:35;;;;;;;1.98;1.50;;;11.50;99.90;;;;;;5068694;28;20590;-71
2023/04/29 00:56:03;;;;;;;3.17;2.00;;;11.50;99.90;;;;;;5069619;28;20566;-71
2023/04/29 00:58:32;;;;;;;2.17;2.03;;;11.50;99.90;;;;;;5071448;28;20679;-72
2023/04/29 01:00:59;;;;;;;2.00;1.80;;;11.50;99.90;;;;;;5073052;28;20291;-71
2023/04/29 01:03:28;;;;;;;1.80;1.70;;;11.50;99.90;;;;;;5072277;28;20227;-71
2023/04/29 01:06:02;;;;;;;1.98;1.77;;;11.50;99.90;;;;;;5073003;28;20197;-71
2023/04/29 01:08:44;;;;;;;1.70;1.60;;;11.50;99.90;;;;;;5072543;28;20609;-71
2023/04/29 01:11:13;;;;;;;1.70;1.60;;;11.40;99.90;;;;;;5072992;28;20196;-71
2023/04/29 01:13:45;;;;;;;1.95;1.80;;;11.40;99.90;;;;;;5072050;28;20228;-71
2023/04/29 01:16:19;;;;;;;1.73;1.50;;;11.40;99.90;;;;;;5072926;28;20204;-71
2023/04/29 01:18:50;;;;;;;2.00;1.80;;;11.40;99.90;;;;;;5072641;28;20243;-71
2023/04/29 01:21:18;;;;;;;2.08;1.70;;;11.40;99.90;;;;;;5072698;28;20220;-72
2023/04/29 01:23:46;;;;;;;2.30;1.80;;;11.40;99.90;;;;;;5071741;28;20216;-72
2023/04/29 01:26:13;;;;;;;2.00;1.80;;;11.40;99.90;;;;;;5072794;28;20215;-72
2023/04/29 01:28:46;;;;;;;1.90;1.70;;;11.40;99.90;;;;;;5072136;28;20668;-71
2023/04/29 01:31:19;;;;;;;2.42;1.70;;;11.40;99.90;;;;;;5072571;28;20952;-71
2023/04/29 01:33:54;;;;;;;2.03;1.70;;;11.40;99.90;;;;;;5072130;28;20229;-71
2023/04/29 01:36:31;;;;;;;4.00;2.15;;;11.40;99.90;;;;;;5072444;28;20687;-71
2023/04/29 01:39:07;;;;;;;2.45;2.17;;;11.30;99.90;;;;;;5072316;28;20208;-71
2023/04/29 01:41:42;;;;;;;1.75;1.60;;;11.30;99.90;;;;;;5071726;28;20813;-71
2023/04/29 01:44:15;;;;;;;1.70;1.60;;;11.30;99.90;;;;;;5072455;28;20219;-71
2023/04/29 01:46:43;;;;;;;2.17;1.80;;;11.20;99.90;;;;;;5072222;28;20204;-72
2023/04/29 01:49:24;;;;;;;3.35;1.60;;;11.20;99.90;;;;;;5072202;28;20617;-72
2023/04/29 01:51:51;;;;;;;2.20;2.00;;;11.20;99.90;;;;;;5070430;28;20597;-71
2023/04/29 01:54:21;;;;;;;1.60;1.50;;;11.10;99.90;;;;;;5072273;28;20227;-72
2023/04/29 01:56:48;;;;;;;2.20;1.95;;;11.10;99.90;;;;;;5071913;28;20232;-72
2023/04/29 01:59:15;;;;;;;1.73;1.50;;;11.00;99.90;;;;;;5071886;28;20234;-72
2023/04/29 02:01:41;;;;;;;2.40;2.20;;;11.00;99.90;;;;;;5071410;28;20212;-72
2023/04/29 02:04:08;;;;;;;1.80;1.70;;;10.90;99.90;;;;;;5071851;28;20220;-72
2023/04/29 02:06:35;;;;;;;1.60;1.50;;;10.90;99.90;;;;;;5071437;28;20211;-72
2023/04/29 02:09:01;;;;;;;2.17;1.77;;;10.90;99.90;;;;;;5071625;28;20200;-72
2023/04/29 02:11:30;;;;;;;1.70;1.60;;;10.80;99.90;;;;;;5071736;28;20204;-72
2023/04/29 02:13:56;;;;;;;1.80;1.70;;;10.80;99.90;;;;;;5071673;28;20569;-72
2023/04/29 02:16:23;;;;;;;1.85;1.55;;;10.80;99.90;;;;;;5071907;28;20694;-72
2023/04/29 02:18:50;;;;;;;1.88;1.70;;;10.80;99.90;;;;;;5071287;28;20204;-72
2023/04/29 02:21:16;;;;;;;5.88;2.00;;;10.70;99.90;;;;;;5071364;28;20200;-72
2023/04/29 02:23:43;;;;;;;2.50;2.30;;;10.70;99.90;;;;;;5070831;28;20274;-71
2023/04/29 02:26:10;;;;;;;1.88;1.65;;;10.60;99.90;;;;;;5071607;28;20205;-72
2023/04/29 02:28:38;;;;;;;1.88;1.65;;;10.60;99.90;;;;;;5071018;28;20262;-71
2023/04/29 02:31:05;;;;;;;2.13;1.92;;;10.50;99.90;;;;;;5071477;28;20208;-72
2023/04/29 02:33:32;;;;;;;2.30;1.90;;;10.50;99.90;;;;;;5070797;28;20679;-71
2023/04/29 02:35:59;;;;;;;2.60;1.90;;;10.40;99.90;;;;;;5075095;28;20199;-71
2023/04/29 02:38:26;;;;;;;1.60;1.50;;;10.40;99.90;;;;;;5091405;28;20294;-71
2023/04/29 02:40:52;;;;;;;3.08;1.90;;;10.40;99.90;;;;;;5091200;28;20249;-71
2023/04/29 02:43:19;;;;;;;1.90;1.80;;;10.30;99.90;;;;;;5091018;28;20268;-71
2023/04/29 02:45:47;;;;;;;1.40;1.30;;;10.30;99.90;;;;;;5091057;28;20276;-71
2023/04/29 02:48:14;;;;;;;1.60;1.50;;;10.30;99.90;;;;;;5085579;28;20208;-71
2023/04/29 02:50:41;;;;;;;2.63;1.70;;;10.20;99.90;;;;;;5070677;28;20671;-71
2023/04/29 02:53:08;;;;;;;1.90;1.67;;;10.20;99.90;;;;;;5070631;28;20599;-71
2023/04/29 02:55:34;;;;;;;2.00;1.63;;;10.20;99.90;;;;;;5070950;28;20200;-71
2023/04/29 02:58:03;;;;;;;2.30;1.75;;;10.10;99.90;;;;;;5070721;28;20204;-71
2023/04/29 03:00:29;;;;;;;1.60;1.50;;;10.10;99.90;;;;;;5087299;28;20210;-71
2023/04/29 03:02:57;;;;;;;1.90;1.70;;;10.10;99.90;;;;;;5090248;28;20224;-71
2023/04/29 03:05:24;;;;;;;2.00;1.70;;;10.00;99.90;;;;;;5090985;28;20628;-71
2023/04/29 03:07:51;;;;;;;2.03;1.90;;;10.00;99.90;;;;;;5090547;28;20204;-71
2023/04/29 03:10:18;;;;;;;2.75;1.98;;;10.00;99.90;;;;;;5091020;28;20604;-71
2023/04/29 03:12:44;;;;;;;3.03;2.08;;;10.00;99.90;;;;;;5090263;28;20292;-71
2023/04/29 03:15:12;;;;;;;2.53;2.30;;;10.00;99.90;;;;;;5090950;28;20690;-71
2023/04/29 03:17:38;;;;;;;2.00;1.90;;;10.00;99.90;;;;;;5090500;28;20199;-71
2023/04/29 03:20:09;;;;;;;1.75;1.65;;;10.00;99.90;;;;;;5090078;28;20740;-71
2023/04/29 03:22:36;;;;;;;2.15;1.92;;;10.00;99.90;;;;;;5089928;28;20746;-71
2023/04/29 03:25:02;;;;;;;1.88;1.67;;;9.90;99.90;;;;;;5090660;28;20196;-71
2023/04/29 03:27:29;;;;;;;2.47;2.15;;;9.80;99.90;;;;;;5091057;28;20265;-72
2023/04/29 03:29:56;;;;;;;2.25;1.80;;;9.80;99.90;;;;;;5090201;28;20581;-71
2023/04/29 03:32:23;;;;;;;2.65;2.10;;;9.80;99.90;;;;;;5090270;28;20203;-71
2023/04/29 03:34:50;;;;;;;2.17;1.98;;;9.80;99.90;;;;;;5071224;28;20311;-72
2023/04/29 03:37:18;;;;;;;2.15;1.95;;;9.80;99.90;;;;;;5070464;28;20303;-72
2023/04/29 03:39:44;;;;;;;2.25;1.95;;;9.80;99.90;;;;;;5069822;28;20200;-72
2023/04/29 03:42:11;;;;;;;2.03;1.83;;;9.90;99.90;;;;;;5069892;28;20217;-72
2023/04/29 03:44:37;;;;;;;2.35;2.05;;;9.90;99.90;;;;;;5086653;28;20630;-72
2023/04/29 03:47:05;;;;;;;2.17;2.00;;;9.90;99.90;;;;;;5090590;28;20195;-72
2023/04/29 03:49:32;;;;;;;2.85;2.45;;;9.90;99.90;;;;;;5090221;28;20219;-72
2023/04/29 03:51:58;;;;;;;2.10;1.85;;;9.90;99.90;;;;;;5089740;28;20257;-72
2023/04/29 03:54:27;;;;;;;3.22;2.35;;;10.00;99.90;;;;;;5090314;28;20241;-72
2023/04/29 03:56:54;;;;;;;2.10;1.73;;;10.00;99.90;;;;;;5090089;28;20257;-72
2023/04/29 03:59:20;;;;;;;3.47;1.95;;;10.00;99.90;;;;;;5090230;28;20207;-71
2023/04/29 04:01:47;;;;;;;3.40;2.50;;;10.10;99.90;;;;;;5071363;28;20207;-72
2023/04/29 04:04:14;;;;;;;2.30;2.10;;;10.20;99.90;;;;;;5069898;28;20251;-71
2023/04/29 04:06:42;;;;;;;2.85;2.25;;;10.20;99.90;;;;;;5069765;28;20196;-71
2023/04/29 04:09:09;;;;;;;2.30;2.10;;;10.20;99.90;;;;;;5069956;28;20561;-71
2023/04/29 04:11:37;;;;;;;2.15;1.90;;;10.30;99.90;;;;;;5069592;28;20200;-71
2023/04/29 04:14:04;;;;;;;2.80;2.30;;;10.30;99.90;;;;;;5061669;28;20243;-71
2023/04/29 04:16:31;;;;;;;2.60;2.40;;;10.30;99.90;;;;;;5070142;28;20295;-71
2023/04/29 04:18:58;;;;;;;1.90;1.80;;;10.30;99.90;;;;;;5089144;28;20261;-71
2023/04/29 04:21:26;;;;;;;2.88;1.90;;;10.30;99.90;;;;;;5090109;28;20207;-71
2023/04/29 04:23:53;;;;;;;3.17;2.33;;;10.30;99.90;;;;;;5089231;28;20224;-71
2023/04/29 04:26:20;;;;;;;2.88;2.05;;;10.30;99.90;;;;;;5090136;28;20229;-72
2023/04/29 04:28:48;;;;;;;2.33;2.10;;;10.30;99.90;;;;;;5089496;28;20208;-72
2023/04/29 04:31:15;;;;;;;2.20;2.00;;;10.20;99.90;;;;;;5090809;28;20208;-71
2023/04/29 04:33:42;;;;;;;1.60;1.50;;;10.20;99.90;;;;;;5093298;28;20226;-71
2023/04/29 04:36:08;;;;;;;3.25;2.38;;;10.20;99.90;;;;;;5093895;28;20678;-71
2023/04/29 04:38:35;;;;;;;1.77;1.60;;;10.10;99.90;;;;;;5093825;28;20195;-71
2023/04/29 04:41:02;;;;;;;2.10;1.90;;;10.10;99.90;;;;;;5093495;28;20294;-71
2023/04/29 04:43:28;;;;;;;2.72;2.10;;;10.10;99.90;;;;;;5078009;28;20224;-71
2023/04/29 04:45:56;;;;;;;4.18;2.03;;;10.10;99.90;;;;;;5073162;28;20205;-71
2023/04/29 04:48:23;;;;;;;4.05;2.10;;;10.00;99.90;;;;;;5073283;28;20667;-71
2023/04/29 04:50:50;;;;;;;2.20;1.90;;;10.00;99.90;;;;;;5072827;28;20200;-71
2023/04/29 04:53:16;;;;;;;1.73;1.60;;;10.00;99.90;;;;;;5072875;28;20224;-71
2023/04/29 04:55:43;;;;;;;1.98;1.77;;;10.00;99.90;;;;;;5073277;28;20308;-71
2023/04/29 04:58:10;;;;;;;2.38;2.17;;;9.90;99.90;;;;;;5073027;28;20296;-71
2023/04/29 05:00:37;;;;;;;1.50;1.30;;;9.90;99.90;;;;;;5073246;28;20845;-71
2023/04/29 05:03:05;;;;;;;3.08;2.28;;;9.90;99.90;;;;;;5072250;28;20230;-71
2023/04/29 05:05:33;;;;;;;1.85;1.73;;;9.90;99.90;;;;;;5073150;28;20239;-71
2023/04/29 05:08:00;;;;;;;2.03;1.83;;;10.00;99.90;;;;;;5072473;28;20208;-71
2023/04/29 05:10:26;;;;;;;5.50;2.30;;;10.00;99.90;;;;;;5073202;28;20288;-71
2023/04/29 05:12:53;;;;;;;2.05;1.73;;;10.10;99.90;;;;;;5072430;28;20286;-71
2023/04/29 05:15:20;;;;;;;4.30;2.45;;;10.10;99.90;;;;;;5073236;28;20204;-71
2023/04/29 05:17:46;;;;;;;2.08;1.80;;;10.10;99.90;;;;;;5072653;28;20251;-72
2023/04/29 05:20:14;;;;;;;1.70;1.60;;;10.10;99.90;;;;;;5073218;28;20200;-71
2023/04/29 05:22:41;;;;;;;2.55;2.03;;;10.20;99.90;;;;;;5072222;28;20614;-71
2023/04/29 05:25:08;;;;;;;2.72;2.30;;;10.20;99.90;;;;;;5072823;28;20617;-72
2023/04/29 05:27:35;;;;;;;2.20;2.00;;;10.30;99.90;;;;;;5072757;28;20586;-71
2023/04/29 05:30:02;;;;;;;2.97;2.35;;;10.30;99.90;;;;;;5072288;28;20850;-71
2023/04/29 05:32:28;;;;;;;2.90;2.60;;;10.40;99.90;;;;;;5072173;28;20352;-72
2023/04/29 05:34:55;;;;;;;2.60;2.40;;;10.50;99.90;;;;;;5072269;28;20197;-71
2023/04/29 05:37:25;;;;;;;3.00;2.42;;;10.60;99.90;;;;;;5072758;28;20205;-71
2023/04/29 05:39:52;;;;;;;2.95;2.70;;;10.70;99.90;;;;;;5072041;28;20226;-71
2023/04/29 05:42:19;;;;;;;2.40;2.20;;;10.90;99.90;;;;;;5072095;28;20208;-71
2023/04/29 05:44:45;;;;;;;2.83;2.55;;;11.00;99.90;;;;;;5071572;28;20224;-71
2023/04/29 05:47:12;;;;;;;2.92;2.60;;;11.10;99.90;;;;;;5072218;28;20200;-71
2023/04/29 05:49:39;;;;;;;2.22;2.10;;;11.30;99.90;;;;;;5072143;28;20258;-71
2023/04/29 05:52:06;;;;;;;2.80;2.60;;;11.50;99.90;;;;;;5071548;28;20550;-71
2023/04/29 05:54:34;;;;;;;2.92;2.70;;;11.70;99.90;;;;;;5072301;28;20303;-71
2023/04/29 05:57:02;;;;;;;3.15;2.85;;;11.90;99.90;;;;;;5071516;28;20273;-71
2023/04/29 05:59:29;;;;;;;3.25;2.47;;;12.10;99.90;;;;;;5072168;28;20675;-71
2023/04/29 06:01:56;;;;;;;2.95;2.72;;;12.30;99.90;;;;;;5071331;28;20295;-71
2023/04/29 06:04:23;;;;;;;2.92;2.63;;;12.40;99.90;;;;;;5140419;22;20233;-70
2023/04/29 06:06:57;;;;;;;3.70;2.83;;;12.60;99.90;;;;;;5091216;28;20200;-71
2023/04/29 06:09:24;;;;;;;3.60;3.30;;;12.70;99.90;;;;;;5092282;28;20206;-71
2023/04/29 06:11:52;;;;;;;3.25;2.95;;;12.60;99.90;;;;;;5091503;28;20486;-70
2023/04/29 06:14:19;;;;;;;3.55;3.10;;;12.60;99.90;;;;;;5091953;28;20327;-70
2023/04/29 06:16:46;;;;;;;3.33;2.35;;;12.70;99.90;;;;;;5091664;28;20199;-71
2023/04/29 06:19:13;;;;;;;2.33;2.13;;;12.70;99.90;;;;;;5091890;28;20207;-71
2023/04/29 06:21:39;;;;;;;3.38;2.50;;;12.60;99.90;;;;;;5091734;28;20211;-71
2023/04/29 06:24:06;;;;;;;2.63;2.43;;;12.60;99.90;;;;;;5091642;28;20235;-70
2023/04/29 06:26:33;;;;;;;2.27;2.07;;;12.60;99.90;;;;;;5092163;28;20464;-70
2023/04/29 06:29:01;;;;;;;2.80;2.50;;;12.70;99.90;;;;;;5091280;28;20461;-70
2023/04/29 06:31:28;;;;;;;2.55;2.35;;;12.70;99.90;;;;;;5091695;28;20204;-70
2023/04/29 06:33:54;;;;;;;2.70;2.50;;;12.80;99.90;;;;;;5091022;28;20216;-70
2023/04/29 06:36:21;;;;;;;3.00;2.80;;;12.90;99.90;;;;;;5091474;28;20648;-70
2023/04/29 06:38:48;;;;;;;3.23;2.93;;;12.90;99.90;;;;;;5091041;28;20207;-70
2023/04/29 06:41:14;;;;;;;3.33;3.03;;;13.00;99.90;;;;;;5091293;28;20465;-71
2023/04/29 06:43:42;;;;;;;2.80;2.60;;;13.10;99.90;;;;;;5090920;28;20489;-70
2023/04/29 06:46:10;;;;;;;3.40;2.70;;;13.10;99.90;;;;;;5085978;28;20514;-70
2023/04/29 06:48:37;;;;;;;3.60;3.30;;;13.20;99.90;;;;;;5081977;28;20202;-71
2023/04/29 06:51:04;;;;;;;2.93;2.73;;;13.30;99.90;;;;;;5073348;28;20460;-70
2023/04/29 06:53:31;;;;;;;2.80;2.60;;;13.40;99.90;;;;;;5079843;28;20505;-70
2023/04/29 06:55:57;;;;;;;2.50;2.30;;;13.60;99.90;;;;;;5078257;28;20952;-69
2023/04/29 06:58:24;;;;;;;3.10;2.53;;;13.70;99.90;;;;;;5091089;28;20967;-70
2023/04/29 07:00:51;;;;;;;3.10;2.80;;;13.80;99.90;;;;;;5090712;28;20908;-70
2023/04/29 07:03:19;;;;;;;2.80;2.60;;;14.00;99.90;;;;;;5090720;28;20877;-70
2023/04/29 07:05:46;;;;;;;2.47;2.27;;;14.10;99.90;;;;;;5090945;28;20460;-72
2023/04/29 07:08:14;;;;;;;2.40;2.20;;;14.20;99.90;;;;;;5091157;28;20868;-70
2023/04/29 07:10:41;;;;;;;2.80;2.60;;;14.30;99.90;;;;;;5090958;28;20507;-70
2023/04/29 07:13:07;;;;;;;2.70;2.27;;;14.30;99.90;;;;;;5090401;28;20482;-70
2023/04/29 07:15:35;;;;;;;2.80;2.60;;;14.30;99.90;;;;;;5091062;28;20460;-69
2023/04/29 07:18:04;;;;;;;2.30;2.10;;;14.30;99.90;;;;;;5090512;28;20849;-69
2023/04/29 07:20:32;;;;;;;2.83;2.60;;;14.30;99.90;;;;;;5091097;28;20500;-69
2023/04/29 07:22:58;;;;;;;2.40;2.20;;;14.30;99.90;;;;;;5090122;28;20501;-69
2023/04/29 07:25:26;;;;;;;3.00;2.50;;;14.40;99.90;;;;;;5088343;28;21217;-70
2023/04/29 07:27:53;;;;;;;2.60;2.30;;;14.40;99.90;;;;;;5090383;28;20485;-69
2023/04/29 07:30:19;;;;;;;4.13;2.20;;;14.50;99.90;;;;;;5091040;28;20462;-69
2023/04/29 07:32:46;;;;;;;2.63;2.43;;;14.50;99.90;;;;;;5090485;28;20485;-69
2023/04/29 07:35:13;;;;;;;2.70;2.50;;;14.80;99.90;;;;;;5090591;28;20457;-69
2023/04/29 07:37:42;;;;;;;2.10;1.93;;;15.00;99.90;;;;;;5090598;28;20944;-70
2023/04/29 07:40:09;;;;;;;2.40;2.20;;;15.00;99.90;;;;;;5090208;28;20462;-69
2023/04/29 07:42:36;;;;;;;2.43;1.60;;;15.10;99.90;;;;;;5090314;28;20462;-70
2023/04/29 07:45:02;;;;;;;1.50;1.40;;;15.10;99.90;;;;;;5090153;28;20482;-70
2023/04/29 07:47:29;;;;;;;2.07;1.87;;;15.10;99.90;;;;;;5090444;28;20468;-69
2023/04/29 07:49:57;;;;;;;1.63;1.53;;;15.00;99.90;;;;;;5089887;28;20461;-69
2023/04/29 07:52:23;;;;;;;1.63;1.53;;;15.00;99.90;;;;;;5090021;28;20545;-69
2023/04/29 07:54:52;;;;;;;1.70;1.60;;;14.90;99.90;;;;;;5090121;28;20485;-69
2023/04/29 07:57:18;;;;;;;1.50;1.33;;;14.80;99.90;;;;;;5090474;28;20497;-70
2023/04/29 07:59:45;;;;;;;1.60;1.50;;;14.70;99.90;;;;;;5089816;28;20458;-69
2023/04/29 08:02:12;;;;;;;1.90;1.80;;;14.70;99.90;;;;;;5089792;28;20472;-67
2023/04/29 08:04:40;;;;;;;1.73;1.63;;;14.70;99.90;;;;;;5090067;28;20545;-68
2023/04/29 08:07:06;;;;;;;2.20;1.77;;;14.80;99.90;;;;;;5089981;28;20826;-69
2023/04/29 08:09:33;;;;;;;4.10;1.63;;;14.90;99.90;;;;;;5090178;28;20877;-69
2023/04/29 08:12:01;;;;;;;1.63;1.40;;;15.00;99.90;;;;;;5089541;28;20462;-68
2023/04/29 08:14:28;;;;;;;1.60;1.50;;;15.20;99.90;;;;;;5089716;28;20481;-69
2023/04/29 08:16:55;;;;;;;1.50;1.40;;;15.30;99.90;;;;;;5089768;28;20465;-69
2023/04/29 08:19:21;;;;;;;1.80;1.70;;;15.40;99.90;;;;;;5090088;28;20485;-69
2023/04/29 08:21:48;;;;;;;1.67;1.57;;;15.50;99.90;;;;;;5089517;28;20458;-69
2023/04/29 08:24:15;;;;;;;1.67;1.20;;;15.50;99.90;;;;;;5089736;28;20473;-69
2023/04/29 08:26:41;;;;;;;1.67;1.50;;;15.50;99.90;;;;;;5090137;28;20466;-68
2023/04/29 08:29:09;;;;;;;1.73;1.63;;;15.50;99.90;;;;;;5089252;28;20465;-68
2023/04/29 08:31:36;;;;;;;2.87;2.67;;;15.50;99.90;;;;;;5089878;28;20457;-69
2023/04/29 08:34:03;;;;;;;2.10;1.90;;;15.60;99.90;;;;;;5089522;28;20474;-69
2023/04/29 08:36:30;;;;;;;1.43;1.33;;;15.60;99.90;;;;;;5089817;28;20548;-69
2023/04/29 08:39:00;;;;;;;1.93;1.10;;;15.50;99.90;;;;;;5089337;28;20497;-69
2023/04/29 08:41:27;;;;;;;1.43;1.33;;;15.50;99.90;;;;;;5089950;28;20531;-69
2023/04/29 08:43:53;;;;;;;1.33;1.23;;;15.60;99.90;;;;;;5088971;28;20477;-69
2023/04/29 08:46:24;;;;;;;1.40;1.30;;;15.60;99.90;;;;;;5089921;28;20458;-69
2023/04/29 08:48:52;;;;;;;2.37;1.60;;;15.80;99.90;;;;;;5078357;28;20466;-69
2023/04/29 08:51:19;;;;;;;1.40;1.30;;;15.90;99.90;;;;;;5079328;28;20462;-69
2023/04/29 08:53:46;;;;;;;1.40;1.20;;;15.80;99.90;;;;;;5088192;28;20506;-68
2023/04/29 08:56:16;;;;;;;2.53;1.40;;;15.90;99.90;;;;;;5077972;28;23329;-69
2023/04/29 08:58:45;;;;;;;1.43;1.23;;;15.90;99.90;;;;;;5089073;28;20553;-69
2023/04/29 09:01:13;;;;;;;1.50;1.20;;;16.00;99.90;;;;;;5089105;28;20462;-69
2023/04/29 09:03:49;;;;;;;1.40;1.30;;;16.20;99.90;;;;;;5088529;28;20509;-69
2023/04/29 09:06:17;;;;;;;1.10;1.00;;;16.40;99.90;;;;;;5089495;28;20464;-70
2023/04/29 09:08:44;;;;;;;1.80;1.50;;;16.70;99.90;;;;;;5088898;28;20899;-69
2023/04/29 09:11:12;;;;;;;1.20;1.10;;;17.00;99.90;;;;;;5088641;28;20465;-69
2023/04/29 09:13:39;;;;;;;2.83;1.70;;;17.00;99.90;;;;;;5089022;28;20481;-70
2023/04/29 09:16:10;;;;;;;4.20;1.80;;;16.80;99.90;;;;;;5089118;28;20458;-70
2023/04/29 09:18:46;;;;;;;1.30;1.20;;;16.70;99.90;;;;;;5090990;28;20461;-70
2023/04/29 09:21:14;;;;;;;1.50;1.33;;;16.50;99.90;;;;;;5092235;28;20461;-70
2023/04/29 09:23:41;;;;;;;1.70;1.60;;;16.40;99.90;;;;;;5092829;28;20852;-70
2023/04/29 09:26:08;;;;;;;2.60;1.80;;;16.40;99.90;;;;;;5092834;28;20461;-70
2023/04/29 09:28:34;;;;;;;1.30;1.20;;;16.50;99.90;;;;;;5093132;28;20508;-68
2023/04/29 09:31:05;;;;;;;1.53;1.43;;;16.40;99.90;;;;;;5092569;28;20461;-69
2023/04/29 09:33:32;;;;;;;1.70;1.60;;;16.60;99.90;;;;;;5092324;28;20887;-69
2023/04/29 09:36:00;;;;;;;2.03;1.83;;;16.80;99.90;;;;;;5092808;28;20808;-69
2023/04/29 09:38:26;;;;;;;1.90;1.70;;;17.00;99.90;;;;;;5092787;28;20510;-69
2023/04/29 09:40:55;;;;;;;1.63;1.33;;;16.90;99.90;;;;;;5092057;28;20918;-69
2023/04/29 09:43:22;;;;;;;1.50;1.40;;;16.90;99.90;;;;;;5076145;28;20485;-69
2023/04/29 09:45:49;;;;;;;2.00;1.80;;;16.90;99.90;;;;;;5091904;28;20469;-70
2023/04/29 09:48:16;;;;;;;1.57;1.47;;;17.00;99.90;;;;;;5091904;28;20461;-69
2023/04/29 09:50:45;;;;;;;1.70;1.60;;;17.00;99.90;;;;;;5092356;28;20639;-70
2023/04/29 09:53:29;;;;;;;1.47;1.37;;;17.40;99.90;;;;;;5085289;28;20538;-69
2023/04/29 09:56:00;;;;;;;1.80;1.70;;;17.70;99.90;;;;;;5086493;28;20864;-70
2023/04/29 09:58:35;;;;;;;1.73;1.63;;;18.00;99.90;;;;;;5060384;28;20473;-68
2023/04/29 10:01:03;;;;;;;1.90;1.60;;;18.10;99.90;;;;;;5088753;28;20469;-67
2023/04/29 10:03:33;;;;;;;2.17;1.80;;;18.00;99.90;;;;;;5088316;28;20484;-68
2023/04/29 10:08:31;;;;;;;1.80;1.67;;;18.00;99.90;;;;;;5067427;28;20502;-71
2023/04/29 10:11:01;;;;;;;2.80;1.80;;;17.90;99.90;;;;;;5068503;28;20478;-68
2023/04/29 10:13:28;;;;;;;1.80;1.63;;;17.90;99.90;;;;;;5070642;28;20825;-69
2023/04/29 10:16:01;;;;;;;1.80;1.70;;;18.20;99.90;;;;;;5066781;28;20479;-68
2023/04/29 10:18:35;;;;;;;1.63;1.43;;;18.90;99.90;;;;;;5063500;28;20466;-69
2023/04/29 10:21:03;;;;;;;1.70;1.60;;;19.80;99.90;;;;;;5087958;28;20460;-69
2023/04/29 10:23:33;;;;;;;1.63;1.40;;;20.50;99.90;;;;;;5075405;28;20461;-69
2023/04/29 10:26:02;;;;;;;2.80;1.50;;;21.00;99.90;;;;;;5090781;28;20500;-68
2023/04/29 10:28:32;;;;;;;1.80;1.70;;;21.50;99.90;;;;;;5091253;28;20457;-69
2023/04/29 10:31:01;;;;;;;1.57;1.47;;;22.10;99.90;;;;;;5091123;28;20468;-68
2023/04/29 10:33:31;;;;;;;2.10;1.90;;;22.80;99.90;;;;;;5073531;28;20500;-68
2023/04/29 10:35:59;;;;;;;1.90;1.70;;;23.10;99.90;;;;;;5077215;28;20485;-67
2023/04/29 10:38:34;;;;;;;1.73;1.27;;;23.30;99.90;;;;;;5090882;28;20489;-68
2023/04/29 10:41:07;;;;;;;1.50;1.40;;;24.00;99.90;;;;;;5090137;28;20543;-68
2023/04/29 10:43:34;;;;;;;1.77;1.67;;;24.70;99.90;;;;;;5070672;28;20600;-69
2023/04/29 10:46:20;;;;;;;1.60;1.50;;;25.10;99.90;;;;;;5070943;28;20502;-69
2023/04/29 10:48:49;;;;;;;1.70;1.40;;;25.30;99.20;;;;;;5070851;28;20949;-69
2023/04/29 10:51:30;;;;;;;1.60;1.50;;;25.80;98.60;;;;;;5082874;28;20507;-69
2023/04/29 10:54:06;;;;;;;2.33;1.57;;;26.00;98.10;;;;;;5091213;28;20475;-68
2023/04/29 10:56:43;;;;;;;2.27;1.57;;;26.20;97.60;;;;;;5090583;28;20559;-69
2023/04/29 10:59:12;;;;;;;1.80;1.70;;;26.30;97.50;;;;;;5090378;28;20528;-69
2023/04/29 11:01:47;;;;;;;1.50;1.40;;;26.30;98.00;;;;;;5090221;28;20464;-68
2023/04/29 11:04:15;;;;;;;1.77;1.57;;;25.60;96.40;;;;;;5090295;28;20956;-68
2023/04/29 11:06:47;;;;;;;2.90;1.87;;;25.20;96.70;;;;;;5076368;28;20994;-68
2023/04/29 11:09:18;;;;;;;2.07;1.60;;;24.70;97.30;;;;;;5069654;28;20521;-69
2023/04/29 11:11:48;;;;;;;1.87;1.77;;;24.30;97.90;;;;;;5070901;28;20549;-69
2023/04/29 11:14:21;;;;;;;2.07;1.87;;;23.70;98.20;;;;;;5079357;28;20897;-68
2023/04/29 11:16:49;;;;;;;4.30;1.80;;;23.30;98.10;;;;;;5090509;28;20478;-68
2023/04/29 11:19:17;;;;;;;1.80;1.57;;;22.60;98.50;;;;;;5090217;28;20458;-68
2023/04/29 11:21:46;;;;;;;2.17;1.97;;;21.80;98.80;;;;;;5070355;28;20470;-68
2023/04/29 11:24:16;;;;;;;1.97;1.80;;;20.80;99.70;;;;;;5087445;28;20458;-68
2023/04/29 11:26:43;;;;;;;1.80;1.70;;;20.50;99.90;;;;;;5090864;28;20515;-68
2023/04/29 11:29:12;;;;;;;1.80;1.70;;;20.50;99.90;;;;;;5089922;28;20552;-68
2023/04/29 11:31:39;;;;;;;1.77;1.40;;;20.40;99.90;;;;;;5084410;28;20960;-68
2023/04/29 11:34:07;;;;;;;1.40;1.30;;;20.90;99.90;;;;;;5069811;28;21003;-69
2023/04/29 11:36:34;;;;;;;1.57;1.37;;;21.70;99.90;;;;;;5073460;28;20574;-69
2023/04/29 11:39:02;;;;;;;1.40;1.30;;;22.30;99.10;;;;;;5081828;28;20456;-68
2023/04/29 11:41:30;;;;;;;1.60;1.50;;;23.00;97.50;;;;;;5060758;28;20894;-69
2023/04/29 11:43:58;;;;;;;1.77;1.30;;;23.50;98.70;;;;;;5069730;28;20460;-69
2023/04/29 11:46:27;;;;;;;1.50;1.40;;;24.00;96.80;;;;;;5077726;28;20976;-70
2023/04/29 11:48:53;;;;;;;2.17;1.23;;;24.30;96.90;;;;;;5069568;28;20459;-69
2023/04/29 11:51:21;;;;;;;1.47;1.37;;;24.10;96.00;;;;;;5069148;28;20974;-69
2023/04/29 11:53:48;;;;;;;1.70;1.60;;;23.60;96.40;;;;;;5074855;28;20469;-69
2023/04/29 11:56:14;;;;;;;1.80;1.60;;;23.50;96.50;;;;;;5084189;28;20468;-68
2023/04/29 11:58:43;;;;;;;2.40;1.30;;;23.70;95.80;;;;;;5090109;28;20498;-69
2023/04/29 12:01:10;;;;;;;1.07;0.97;;;23.90;96.00;;;;;;5089328;28;20507;-69
2023/04/29 12:03:38;;;;;;;1.90;1.40;;;24.10;95.00;;;;;;5069089;28;20470;-69
2023/04/29 12:06:05;;;;;;;1.80;1.20;;;24.30;94.40;;;;;;5069637;28;20881;-69
2023/04/29 12:08:32;;;;;;;1.50;1.23;;;24.30;95.20;;;;;;5073932;28;20520;-69
2023/04/29 12:11:00;;;;;;;1.10;0.87;;;24.80;95.30;;;;;;5074012;28;20539;-69
2023/04/29 12:13:28;;;;;;;1.90;1.70;;;25.20;95.60;;;;;;5054726;28;20877;-68
2023/04/29 12:15:56;;;;;;;3.07;1.67;;;25.70;94.60;;;;;;5066256;28;20491;-69
2023/04/29 12:18:24;;;;;;;1.60;1.50;;;25.60;94.20;;;;;;5088751;28;20520;-69
2023/04/29 12:20:52;;;;;;;2.50;2.23;;;25.60;96.20;;;;;;5088653;28;20453;-69
2023/04/29 12:23:22;;;;;;;2.30;2.13;;;25.60;96.50;;;;;;5083897;28;20455;-69
2023/04/29 12:25:51;;;;;;;2.43;2.10;;;25.10;95.70;;;;;;5083053;28;20731;-69
2023/04/29 12:28:18;;;;;;;2.40;2.20;;;24.10;96.30;;;;;;5077222;28;20459;-69
2023/04/29 12:30:46;;;;;;;2.43;2.23;;;23.10;97.00;;;;;;5069180;28;20813;-69
2023/04/29 12:33:18;;;;;;;2.60;2.40;;;22.30;98.70;;;;;;5068019;28;20471;-68
2023/04/29 12:35:45;;;;;;;3.47;2.60;;;21.70;98.60;;;;;;5069039;28;20522;-68
2023/04/29 12:38:17;;;;;;;3.03;2.80;;;21.20;99.80;;;;;;5060060;28;20464;-69
2023/04/29 12:40:44;;;;;;;4.20;3.20;;;21.00;99.90;;;;;;5054059;28;20514;-69
2023/04/29 12:43:11;;;;;;;3.20;2.90;;;20.50;99.90;;;;;;5056346;28;20502;-69
2023/04/29 12:45:39;;;;;;;3.10;2.80;;;20.10;99.90;;;;;;5055816;28;20853;-68
2023/04/29 12:48:06;;;;;;;2.97;2.50;;;20.10;99.90;;;;;;5058351;28;20467;-69
2023/04/29 12:50:34;;;;;;;3.23;2.80;;;20.20;99.90;;;;;;5057280;28;20464;-68
2023/04/29 12:53:03;;;;;;;2.40;2.20;;;20.80;99.90;;;;;;5061502;28;20453;-69
2023/04/29 12:55:33;;;;;;;4.60;3.57;;;21.30;99.70;;;;;;5059695;28;20475;-69